createdAt,value
2023-05-14T00:00:29.849Z,4.80
2023-05-14T00:02:56.824Z,4.68
2023-05-14T00:05:23.906Z,4.53
2023-05-14T00:07:50.728Z,4.70
2023-05-14T00:10:17.648Z,4.55
2023-05-14T00:12:44.579Z,4.40
2023-05-14T00:15:11.508Z,4.70
2023-05-14T00:17:38.454Z,4.53
2023-05-14T00:20:06.383Z,4.55
2023-05-14T00:22:34.017Z,4.50
2023-05-14T00:25:00.902Z,4.60
2023-05-14T00:27:27.746Z,4.70
2023-05-14T00:29:54.609Z,4.70
2023-05-14T00:32:21.491Z,4.85
2023-05-14T00:34:48.380Z,4.78
2023-05-14T00:37:15.233Z,4.90
2023-05-14T00:39:42.130Z,5.03
2023-05-14T00:42:08.984Z,4.90
2023-05-14T00:44:36.126Z,4.70
2023-05-14T00:47:03.571Z,4.47
2023-05-14T00:49:30.568Z,5.10
2023-05-14T00:51:58.076Z,5.00
2023-05-14T00:54:25.230Z,4.97
2023-05-14T00:56:52.211Z,4.90
2023-05-14T00:59:19.077Z,4.85
2023-05-14T01:01:46.001Z,4.80
2023-05-14T01:04:13.156Z,5.20
2023-05-14T01:06:39.964Z,4.78
2023-05-14T01:09:28.972Z,4.78
2023-05-14T01:12:14.495Z,5.20
2023-05-14T01:14:54.443Z,4.80
2023-05-14T01:17:23.005Z,5.10
2023-05-14T01:19:51.164Z,4.70
2023-05-14T01:22:18.071Z,4.95
2023-05-14T01:24:45.001Z,5.00
2023-05-14T01:27:17.654Z,4.95
2023-05-14T01:29:52.372Z,4.80
2023-05-14T01:32:23.036Z,5.18
2023-05-14T01:34:51.037Z,5.03
2023-05-14T01:37:18.673Z,5.40
2023-05-14T01:39:46.103Z,5.00
2023-05-14T01:42:13.377Z,5.00
2023-05-14T01:44:40.426Z,5.35
2023-05-14T01:47:07.284Z,5.00
2023-05-14T01:49:34.109Z,5.22
2023-05-14T01:52:01.002Z,4.82
2023-05-14T01:54:27.822Z,4.90
2023-05-14T01:56:54.708Z,4.97
2023-05-14T01:59:21.604Z,5.65
2023-05-14T02:01:48.541Z,5.00
2023-05-14T02:04:15.647Z,5.10
2023-05-14T02:06:42.691Z,5.10
2023-05-14T02:09:09.538Z,5.50
2023-05-14T02:11:36.429Z,5.40
2023-05-14T02:14:03.338Z,5.30
2023-05-14T02:16:30.247Z,5.20
2023-05-14T02:18:57.129Z,5.18
2023-05-14T02:21:24.736Z,5.07
2023-05-14T02:23:51.618Z,5.30
2023-05-14T02:26:18.486Z,4.93
2023-05-14T02:28:45.361Z,5.38
2023-05-14T02:31:12.269Z,5.50
2023-05-14T02:33:39.249Z,5.60
2023-05-14T02:36:06.347Z,5.70
2023-05-14T02:38:33.195Z,5.60
2023-05-14T02:41:00.068Z,5.28
2023-05-14T02:43:26.924Z,5.57
2023-05-14T02:45:53.841Z,5.90
2023-05-14T02:48:20.717Z,5.50
2023-05-14T02:50:48.401Z,5.55
2023-05-14T02:53:15.273Z,5.57
2023-05-14T02:55:42.088Z,5.75
2023-05-14T02:58:08.980Z,5.90
2023-05-14T03:00:35.892Z,5.93
2023-05-14T03:03:03.107Z,5.65
2023-05-14T03:05:30.134Z,5.50
2023-05-14T03:07:56.986Z,5.40
2023-05-14T03:10:24.154Z,5.72
2023-05-14T03:12:51.671Z,5.40
2023-05-14T03:15:18.696Z,6.10
2023-05-14T03:17:45.597Z,6.03
2023-05-14T03:20:13.272Z,5.60
2023-05-14T03:22:40.491Z,5.90
2023-05-14T03:25:07.543Z,5.80
2023-05-14T03:27:34.444Z,6.10
2023-05-14T03:30:01.314Z,5.80
2023-05-14T03:32:28.289Z,5.70
2023-05-14T03:34:55.235Z,5.70
2023-05-14T03:37:22.268Z,5.70
2023-05-14T03:39:49.110Z,5.10
2023-05-14T03:42:15.980Z,5.38
2023-05-14T03:44:42.817Z,6.07
2023-05-14T03:47:09.663Z,7.75
2023-05-14T03:49:36.543Z,12.05
2023-05-14T03:52:03.567Z,16.15
2023-05-14T03:54:30.445Z,9.52
2023-05-14T03:56:57.326Z,6.32
2023-05-14T03:59:24.209Z,6.60
2023-05-14T04:01:51.176Z,25.40
2023-05-14T04:04:18.081Z,28.75
2023-05-14T04:06:44.964Z,41.90
2023-05-14T04:09:11.894Z,46.05
2023-05-14T04:11:38.766Z,44.25
2023-05-14T04:14:05.708Z,22.07
2023-05-14T04:16:32.559Z,33.08
2023-05-14T04:19:02.589Z,16.35
2023-05-14T04:21:29.474Z,7.50
2023-05-14T04:23:56.379Z,5.65
2023-05-14T04:26:23.343Z,6.70
2023-05-14T04:28:50.185Z,6.40
2023-05-14T04:31:17.086Z,13.17
2023-05-14T04:33:43.945Z,8.65
2023-05-14T04:36:10.820Z,6.15
2023-05-14T04:38:37.653Z,15.70
2023-05-14T04:41:04.673Z,31.33
2023-05-14T04:43:31.531Z,11.18
2023-05-14T04:45:58.461Z,12.57
2023-05-14T04:48:25.405Z,19.15
2023-05-14T04:50:52.305Z,17.40
2023-05-14T04:53:19.259Z,9.88
2023-05-14T04:55:46.062Z,13.13
2023-05-14T04:58:12.921Z,8.65
2023-05-14T05:00:39.889Z,8.95
2023-05-14T05:03:06.838Z,13.32
2023-05-14T05:05:33.744Z,24.10
2023-05-14T05:08:00.599Z,14.35
2023-05-14T05:10:27.537Z,18.15
2023-05-14T05:12:54.381Z,32.30
2023-05-14T05:15:21.205Z,17.15
2023-05-14T05:17:48.489Z,9.38
2023-05-14T05:20:15.528Z,6.70
2023-05-14T05:22:42.398Z,6.07
2023-05-14T05:25:09.494Z,5.70
2023-05-14T05:27:36.342Z,6.25
2023-05-14T05:30:03.285Z,6.00
2023-05-14T05:32:30.569Z,9.52
2023-05-14T05:34:57.501Z,8.20
2023-05-14T05:37:24.408Z,13.02
2023-05-14T05:39:51.259Z,20.00
2023-05-14T05:42:18.086Z,16.13
2023-05-14T05:44:45.082Z,17.63
2023-05-14T05:47:11.925Z,17.65
2023-05-14T05:49:38.791Z,13.18
2023-05-14T05:52:05.837Z,6.10
2023-05-14T05:54:32.685Z,7.00
2023-05-14T05:56:59.892Z,5.20
2023-05-14T05:59:26.818Z,5.15
2023-05-14T06:01:53.790Z,5.00
2023-05-14T06:04:20.675Z,5.05
2023-05-14T06:06:47.504Z,4.93
2023-05-14T06:09:14.445Z,5.20
2023-05-14T06:11:41.310Z,5.20
2023-05-14T06:14:08.192Z,5.20
2023-05-14T06:16:35.136Z,5.40
2023-05-14T06:19:02.092Z,6.05
2023-05-14T06:21:28.972Z,9.85
2023-05-14T06:23:55.822Z,6.10
2023-05-14T06:26:22.649Z,5.50
2023-05-14T06:28:49.505Z,5.03
2023-05-14T06:31:16.410Z,4.90
2023-05-14T06:33:43.250Z,4.43
2023-05-14T06:36:10.385Z,4.75
2023-05-14T06:38:37.372Z,4.20
2023-05-14T06:41:04.345Z,4.40
2023-05-14T06:43:31.194Z,3.95
2023-05-14T06:45:58.092Z,4.40
2023-05-14T06:48:25.017Z,3.90
2023-05-14T06:50:51.904Z,4.18
2023-05-14T06:53:18.765Z,4.20
2023-05-14T06:55:47.889Z,3.50
2023-05-14T06:58:14.801Z,3.70
2023-05-14T07:00:41.724Z,3.23
2023-05-14T07:03:08.645Z,3.60
2023-05-14T07:05:35.520Z,3.58
2023-05-14T07:08:02.499Z,3.75
2023-05-14T07:10:29.388Z,3.60
2023-05-14T07:12:56.277Z,4.30
2023-05-14T07:15:23.121Z,3.25
2023-05-14T07:17:50.006Z,3.40
2023-05-14T07:20:16.947Z,3.58
2023-05-14T07:22:43.833Z,3.78
2023-05-14T07:25:11.084Z,3.30
2023-05-14T07:27:37.941Z,3.30
2023-05-14T07:30:05.218Z,3.55
2023-05-14T07:32:32.108Z,3.40
2023-05-14T07:34:59.254Z,3.70
2023-05-14T07:37:26.291Z,3.60
2023-05-14T07:39:53.885Z,3.70
2023-05-14T07:42:32.228Z,5.50
2023-05-14T07:45:02.650Z,7.20
2023-05-14T07:47:30.229Z,3.88
2023-05-14T07:49:58.062Z,3.70
2023-05-14T07:52:25.324Z,3.35
2023-05-14T07:54:52.353Z,3.30
2023-05-14T07:57:20.051Z,3.60
2023-05-14T07:59:48.204Z,3.83
2023-05-14T08:02:15.280Z,2.90
2023-05-14T08:04:42.191Z,3.38
2023-05-14T08:07:09.140Z,3.50
2023-05-14T08:09:36.098Z,3.33
2023-05-14T08:12:03.184Z,3.70
2023-05-14T08:14:30.088Z,3.40
2023-05-14T08:16:56.987Z,3.80
2023-05-14T08:19:23.874Z,5.13
2023-05-14T08:21:50.910Z,3.15
2023-05-14T08:24:18.829Z,2.90
2023-05-14T08:26:45.713Z,3.00
2023-05-14T08:29:14.671Z,3.40
2023-05-14T08:31:43.060Z,3.10
2023-05-14T08:34:09.972Z,2.80
2023-05-14T08:36:36.933Z,2.88
2023-05-14T08:39:03.883Z,3.30
2023-05-14T08:41:31.110Z,2.80
2023-05-14T08:44:18.398Z,3.97
2023-05-14T08:46:45.816Z,3.30
2023-05-14T08:49:33.943Z,3.10
2023-05-14T08:52:01.331Z,3.08
2023-05-14T08:54:28.296Z,3.17
2023-05-14T08:56:55.705Z,2.90
2023-05-14T08:59:22.580Z,2.85
2023-05-14T09:01:53.181Z,2.83
2023-05-14T09:04:22.114Z,3.00
2023-05-14T09:06:53.422Z,2.90
2023-05-14T09:09:20.919Z,3.00
2023-05-14T09:11:51.749Z,2.90
2023-05-14T09:14:19.377Z,2.95
2023-05-14T09:16:48.451Z,2.87
2023-05-14T09:19:16.670Z,2.88
2023-05-14T09:21:45.767Z,2.90
2023-05-14T09:24:22.459Z,2.90
2023-05-14T09:26:57.983Z,2.50
2023-05-14T09:29:29.539Z,2.50
2023-05-14T09:31:57.548Z,3.40
2023-05-14T09:34:28.100Z,2.90
2023-05-14T09:36:57.196Z,2.90
2023-05-14T09:39:25.721Z,2.70
2023-05-14T09:41:53.413Z,2.40
2023-05-14T09:44:21.029Z,2.47
2023-05-14T09:46:48.879Z,2.37
2023-05-14T09:49:16.038Z,2.20
2023-05-14T09:51:43.146Z,2.90
2023-05-14T09:54:10.449Z,5.50
2023-05-14T09:56:37.722Z,5.70
2023-05-14T09:59:04.955Z,2.40
2023-05-14T10:01:32.677Z,2.60
2023-05-14T10:04:00.361Z,2.78
2023-05-14T10:06:30.713Z,3.20
2023-05-14T10:09:03.804Z,2.80
2023-05-14T10:11:36.103Z,2.60
2023-05-14T10:14:11.577Z,2.60
2023-05-14T10:16:43.760Z,2.30
2023-05-14T10:19:12.310Z,2.90
2023-05-14T10:21:44.730Z,2.53
2023-05-14T10:24:12.273Z,2.50
2023-05-14T10:26:41.608Z,2.50
2023-05-14T10:29:10.563Z,2.80
2023-05-14T10:31:55.720Z,2.70
2023-05-14T10:34:31.527Z,2.75
2023-05-14T10:37:02.681Z,2.92
2023-05-14T10:39:58.196Z,2.70
2023-05-14T10:42:37.539Z,2.90
2023-05-14T10:45:06.615Z,2.90
2023-05-14T10:47:35.473Z,2.90
2023-05-14T10:50:11.180Z,2.37
2023-05-14T10:52:38.153Z,2.80
2023-05-14T10:55:06.963Z,2.70
2023-05-14T10:57:38.014Z,2.70
2023-05-14T11:00:06.740Z,2.50
2023-05-14T11:02:38.746Z,2.60
2023-05-14T11:05:07.059Z,2.70
2023-05-14T11:07:37.669Z,2.65
2023-05-14T11:10:08.736Z,3.00
2023-05-14T11:12:37.705Z,2.60
2023-05-14T11:15:09.267Z,3.80
2023-05-14T11:17:37.307Z,3.45
2023-05-14T11:20:04.967Z,5.93
2023-05-14T11:22:31.868Z,3.55
2023-05-14T11:24:58.726Z,3.87
2023-05-14T11:27:25.859Z,3.80
2023-05-14T11:29:53.401Z,3.17
2023-05-14T11:32:20.605Z,3.60
2023-05-14T11:34:47.899Z,3.40
2023-05-14T11:37:16.635Z,3.55
2023-05-14T11:39:48.917Z,2.90
2023-05-14T11:42:16.471Z,2.80
2023-05-14T11:44:43.489Z,3.00
2023-05-14T11:47:11.316Z,3.00
2023-05-14T11:49:38.300Z,3.10
2023-05-14T11:52:06.741Z,3.50
2023-05-14T11:54:34.857Z,3.35
2023-05-14T11:57:21.884Z,2.80
2023-05-14T11:59:54.895Z,2.58
2023-05-14T12:02:22.125Z,3.22
2023-05-14T12:04:53.496Z,3.00
2023-05-14T12:07:20.551Z,3.05
2023-05-14T12:09:49.066Z,3.00
2023-05-14T12:12:20.042Z,2.10
2023-05-14T12:14:47.725Z,2.58
2023-05-14T12:17:22.267Z,3.17
2023-05-14T12:19:51.114Z,3.15
2023-05-14T12:22:21.181Z,3.97
2023-05-14T12:24:54.807Z,2.80
2023-05-14T12:27:25.627Z,2.60
2023-05-14T12:30:20.689Z,2.65
2023-05-14T12:32:48.562Z,2.70
2023-05-14T12:35:15.514Z,3.10
2023-05-14T12:37:42.393Z,11.98
2023-05-14T12:40:21.760Z,3.92
2023-05-14T12:42:48.726Z,3.08
2023-05-14T12:45:15.616Z,2.87
2023-05-14T12:47:42.626Z,2.80
2023-05-14T12:50:09.830Z,2.50
2023-05-14T12:52:39.189Z,3.00
2023-05-14T12:55:09.863Z,2.40
2023-05-14T12:57:38.089Z,2.40
2023-05-14T13:00:05.691Z,5.70
2023-05-14T13:02:32.593Z,4.20
2023-05-14T13:04:59.484Z,4.13
2023-05-14T13:07:26.400Z,2.60
2023-05-14T13:09:53.228Z,2.50
2023-05-14T13:12:20.073Z,2.30
2023-05-14T13:14:46.927Z,2.60
2023-05-14T13:17:13.778Z,2.35
2023-05-14T13:19:40.660Z,2.50
2023-05-14T13:22:07.579Z,2.83
2023-05-14T13:24:35.611Z,2.60
2023-05-14T13:27:02.536Z,2.60
2023-05-14T13:29:29.442Z,2.70
2023-05-14T13:31:56.305Z,2.30
2023-05-14T13:34:23.140Z,2.65
2023-05-14T13:36:50.067Z,2.58
2023-05-14T13:39:17.089Z,2.40
2023-05-14T13:41:43.907Z,2.50
2023-05-14T13:44:10.734Z,2.50
2023-05-14T13:46:37.797Z,2.60
2023-05-14T13:49:04.729Z,2.40
2023-05-14T13:51:31.605Z,2.63
2023-05-14T13:53:58.474Z,2.75
2023-05-14T13:56:25.357Z,2.80
2023-05-14T13:58:52.241Z,2.90
2023-05-14T14:01:19.108Z,2.80
2023-05-14T14:03:46.006Z,2.92
2023-05-14T14:06:12.878Z,2.80
2023-05-14T14:08:39.792Z,3.00
2023-05-14T14:11:06.705Z,2.80
2023-05-14T14:13:33.588Z,2.80
2023-05-14T14:16:00.510Z,2.78
2023-05-14T14:18:27.530Z,2.77
2023-05-14T14:20:54.429Z,2.70
2023-05-14T14:23:21.317Z,2.90
2023-05-14T14:25:48.285Z,2.90
2023-05-14T14:28:15.244Z,2.90
2023-05-14T14:30:42.580Z,3.00
2023-05-14T14:33:09.688Z,2.80
2023-05-14T14:35:36.600Z,2.80
2023-05-14T14:38:03.505Z,3.00
2023-05-14T14:40:30.407Z,2.95
2023-05-14T14:42:57.282Z,2.95
2023-05-14T14:45:24.440Z,2.83
2023-05-14T14:47:51.578Z,2.75
2023-05-14T14:50:18.462Z,3.28
2023-05-14T14:52:46.066Z,3.00
2023-05-14T14:55:13.315Z,2.90
2023-05-14T14:57:40.200Z,3.05
2023-05-14T15:00:07.688Z,2.90
2023-05-14T15:02:35.059Z,2.83
2023-05-14T15:05:02.336Z,2.60
2023-05-14T15:07:29.196Z,2.90
2023-05-14T15:09:56.045Z,2.80
2023-05-14T15:12:23.137Z,2.90
2023-05-14T15:14:50.007Z,2.40
2023-05-14T15:17:16.904Z,2.70
2023-05-14T15:19:43.772Z,2.80
2023-05-14T15:22:10.728Z,2.70
2023-05-14T15:24:37.572Z,3.50
2023-05-14T15:27:04.676Z,3.20
2023-05-14T15:29:31.773Z,3.42
2023-05-14T15:31:58.715Z,5.30
2023-05-14T15:34:25.742Z,3.85
2023-05-14T15:36:52.670Z,3.72
2023-05-14T15:39:23.107Z,4.00
2023-05-14T15:41:50.050Z,4.10
2023-05-14T15:44:16.915Z,3.60
2023-05-14T15:46:43.858Z,3.80
2023-05-14T15:49:10.821Z,3.63
2023-05-14T15:51:37.686Z,4.00
2023-05-14T15:54:04.635Z,3.58
2023-05-14T15:56:31.678Z,4.00
2023-05-14T15:58:58.642Z,3.50
2023-05-14T16:01:25.535Z,3.53
2023-05-14T16:03:53.080Z,3.65
2023-05-14T16:06:20.062Z,3.55
2023-05-14T16:08:46.900Z,3.60
2023-05-14T16:11:13.841Z,3.70
2023-05-14T16:13:40.754Z,3.70
2023-05-14T16:16:08.091Z,3.55
2023-05-14T16:18:35.028Z,3.70
2023-05-14T16:21:01.988Z,3.90
2023-05-14T16:23:28.903Z,3.63
2023-05-14T16:25:55.810Z,4.80
2023-05-14T16:28:22.721Z,5.72
2023-05-14T16:30:49.826Z,6.75
2023-05-14T16:33:16.735Z,4.40
2023-05-14T16:35:43.598Z,3.35
2023-05-14T16:38:10.517Z,3.40
2023-05-14T16:40:37.390Z,3.60
2023-05-14T16:43:04.284Z,3.55
2023-05-14T16:45:31.068Z,3.00
2023-05-14T16:47:57.984Z,3.53
2023-05-14T16:50:24.875Z,3.38
2023-05-14T16:52:51.798Z,3.00
2023-05-14T16:55:18.765Z,3.60
2023-05-14T16:57:45.980Z,3.40
2023-05-14T17:00:13.473Z,3.50
2023-05-14T17:02:40.411Z,10.50
2023-05-14T17:05:08.043Z,3.95
2023-05-14T17:07:34.949Z,3.20
2023-05-14T17:10:01.990Z,3.40
2023-05-14T17:12:28.882Z,3.30
2023-05-14T17:14:55.727Z,3.10
2023-05-14T17:17:22.597Z,3.72
2023-05-14T17:19:49.459Z,3.50
2023-05-14T17:22:16.329Z,3.80
2023-05-14T17:24:43.196Z,3.90
2023-05-14T17:27:10.071Z,3.70
2023-05-14T17:29:36.894Z,3.20
2023-05-14T17:32:04.047Z,3.40
2023-05-14T17:34:30.910Z,4.30
2023-05-14T17:36:57.894Z,4.40
2023-05-14T17:39:24.828Z,3.90
2023-05-14T17:41:51.646Z,3.60
2023-05-14T17:44:18.646Z,3.60
2023-05-14T17:46:45.560Z,3.60
2023-05-14T17:49:12.421Z,3.65
2023-05-14T17:51:39.277Z,3.60
2023-05-14T17:54:06.213Z,3.80
2023-05-14T17:56:33.280Z,3.80
2023-05-14T17:59:00.546Z,3.70
2023-05-14T18:01:27.452Z,3.70
2023-05-14T18:03:54.394Z,10.40
2023-05-14T18:06:21.269Z,5.18
2023-05-14T18:08:48.146Z,4.40
2023-05-14T18:11:15.052Z,4.18
2023-05-14T18:13:41.903Z,4.70
2023-05-14T18:16:08.798Z,4.20
2023-05-14T18:18:35.749Z,4.30
2023-05-14T18:21:02.963Z,4.00
2023-05-14T18:23:29.897Z,4.10
2023-05-14T18:25:56.753Z,3.90
2023-05-14T18:28:23.735Z,4.25
2023-05-14T18:30:50.629Z,4.50
2023-05-14T18:33:17.561Z,14.60
2023-05-14T18:35:44.471Z,8.03
2023-05-14T18:38:11.311Z,4.70
2023-05-14T18:40:38.239Z,4.33
2023-05-14T18:43:05.167Z,4.50
2023-05-14T18:45:32.079Z,4.10
2023-05-14T18:47:59.061Z,7.65
2023-05-14T18:50:25.989Z,7.15
2023-05-14T18:52:52.853Z,4.00
2023-05-14T18:55:19.772Z,3.60
2023-05-14T18:57:46.736Z,4.10
2023-05-14T19:00:14.300Z,4.30
2023-05-14T19:02:41.701Z,3.67
2023-05-14T19:05:08.860Z,3.88
2023-05-14T19:07:37.453Z,3.70
2023-05-14T19:10:05.288Z,3.80
2023-05-14T19:12:32.163Z,4.20
2023-05-14T19:14:59.003Z,3.90
2023-05-14T19:17:26.011Z,6.05
2023-05-14T19:19:52.903Z,23.77
2023-05-14T19:22:19.762Z,6.00
2023-05-14T19:24:46.611Z,5.80
2023-05-14T19:27:13.445Z,4.80
2023-05-14T19:29:40.291Z,4.18
2023-05-14T19:32:07.594Z,4.30
2023-05-14T19:34:34.581Z,3.90
2023-05-14T19:37:01.589Z,4.20
2023-05-14T19:39:28.524Z,4.20
2023-05-14T19:41:55.410Z,3.90
2023-05-14T19:44:22.263Z,3.70
2023-05-14T19:46:49.227Z,4.15
2023-05-14T19:49:16.158Z,3.65
2023-05-14T19:51:43.046Z,4.80
2023-05-14T19:54:10.027Z,9.80
2023-05-14T19:56:36.901Z,7.30
2023-05-14T19:59:03.867Z,5.40
2023-05-14T20:01:30.762Z,4.70
2023-05-14T20:03:57.818Z,4.20
2023-05-14T20:06:24.705Z,3.83
2023-05-14T20:08:51.611Z,3.95
2023-05-14T20:11:18.497Z,4.30
2023-05-14T20:13:45.536Z,4.65
2023-05-14T20:16:12.460Z,5.72
2023-05-14T20:18:39.421Z,8.20
2023-05-14T20:21:06.255Z,6.00
2023-05-14T20:23:33.113Z,4.80
2023-05-14T20:25:59.990Z,4.50
2023-05-14T20:28:26.827Z,4.40
2023-05-14T20:30:53.790Z,4.13
2023-05-14T20:33:20.821Z,4.10
2023-05-14T20:35:47.991Z,4.30
2023-05-14T20:38:14.939Z,4.32
2023-05-14T20:40:41.813Z,3.85
2023-05-14T20:43:08.685Z,3.80
2023-05-14T20:45:35.554Z,3.70
2023-05-14T20:48:02.558Z,4.03
2023-05-14T20:50:29.410Z,3.70
2023-05-14T20:52:56.262Z,3.90
2023-05-14T20:55:23.531Z,3.90
2023-05-14T20:57:50.809Z,4.05
2023-05-14T21:00:18.019Z,3.80
2023-05-14T21:02:45.099Z,3.72
2023-05-14T21:05:12.140Z,4.00
2023-05-14T21:07:39.005Z,4.17
2023-05-14T21:10:07.091Z,10.98
2023-05-14T21:12:33.926Z,20.90
2023-05-14T21:15:00.818Z,8.13
2023-05-14T21:17:27.732Z,6.05
2023-05-14T21:19:54.606Z,5.00
2023-05-14T21:22:22.370Z,4.97
2023-05-14T21:24:50.557Z,4.97
2023-05-14T21:27:17.554Z,4.70
2023-05-14T21:29:44.528Z,5.35
2023-05-14T21:32:11.371Z,4.70
2023-05-14T21:34:38.232Z,4.50
2023-05-14T21:37:05.350Z,4.20
2023-05-14T21:39:32.200Z,4.38
2023-05-14T21:41:59.096Z,4.57
2023-05-14T21:44:25.914Z,4.60
2023-05-14T21:46:52.778Z,3.90
2023-05-14T21:49:19.620Z,4.40
2023-05-14T21:51:46.467Z,4.10
2023-05-14T21:54:13.364Z,4.60
2023-05-14T21:56:40.284Z,4.10
2023-05-14T21:59:07.135Z,4.10
2023-05-14T22:01:42.178Z,3.95
2023-05-14T22:04:17.940Z,4.00
2023-05-14T22:06:44.823Z,4.20
2023-05-14T22:09:11.658Z,4.38
2023-05-14T22:11:38.543Z,4.53
2023-05-14T22:14:05.408Z,4.30
2023-05-14T22:16:33.085Z,4.63
2023-05-14T22:19:00.061Z,4.47
2023-05-14T22:21:26.984Z,5.30
2023-05-14T22:23:53.880Z,4.70
2023-05-14T22:26:20.928Z,4.80
2023-05-14T22:28:47.922Z,5.38
2023-05-14T22:31:14.875Z,5.43
2023-05-14T22:33:41.771Z,4.60
2023-05-14T22:36:09.110Z,5.60
2023-05-14T22:38:35.997Z,4.40
2023-05-14T22:41:02.863Z,4.20
2023-05-14T22:43:29.735Z,4.70
2023-05-14T22:45:56.635Z,4.80
2023-05-14T22:48:24.034Z,5.15
2023-05-14T22:50:50.920Z,4.80
2023-05-14T22:53:17.874Z,5.00
2023-05-14T22:55:44.861Z,5.15
2023-05-14T22:58:11.721Z,4.80
2023-05-14T23:00:38.591Z,5.10
2023-05-14T23:03:05.518Z,4.93
2023-05-14T23:05:32.410Z,4.75
2023-05-14T23:07:59.367Z,4.85
2023-05-14T23:10:26.281Z,4.80
2023-05-14T23:12:53.203Z,4.80
2023-05-14T23:15:20.053Z,4.80
2023-05-14T23:17:47.144Z,4.80
2023-05-14T23:20:14.047Z,4.60
2023-05-14T23:22:41.093Z,4.30
2023-05-14T23:25:08.463Z,4.70
2023-05-14T23:27:35.641Z,4.60
2023-05-14T23:30:03.589Z,4.70
2023-05-14T23:32:30.539Z,4.68
2023-05-14T23:34:57.464Z,5.40
2023-05-14T23:37:24.568Z,4.50
2023-05-14T23:39:51.409Z,4.75
2023-05-14T23:42:18.268Z,4.90
2023-05-14T23:44:45.095Z,4.80
2023-05-14T23:47:12.193Z,5.00
2023-05-14T23:49:39.126Z,4.95
2023-05-14T23:52:06.242Z,5.00
2023-05-14T23:54:33.122Z,5.00
2023-05-14T23:57:00.036Z,5.10
2023-05-14T23:59:26.956Z,5.00
